sensor_id;sensor_type;location;lat;lon;timestamp;pressure;altitude;pressure_sealevel;temperature;humidity
17525;BME280;40431;52.198;9.902;2023-07-24T00:02:05;99658.72;;;19.88;100.00
17525;BME280;40431;52.198;9.902;2023-07-24T00:04:32;99659.78;;;19.87;100.00
17525;BME280;40431;52.198;9.902;2023-07-24T00:06:59;99658.91;;;19.86;100.00
17525;BME280;40431;52.198;9.902;2023-07-24T00:09:27;99655.66;;;19.82;100.00
17525;BME280;40431;52.198;9.902;2023-07-24T00:11:53;99653.75;;;19.83;100.00
17525;BME280;40431;52.198;9.902;2023-07-24T00:14:20;99654.59;;;19.83;100.00
17525;BME280;40431;52.198;9.902;2023-07-24T00:16:46;99664.75;;;19.83;100.00
17525;BME280;40431;52.198;9.902;2023-07-24T00:19:12;99653.56;;;19.76;100.00
17525;BME280;40431;52.198;9.902;2023-07-24T00:21:39;99658.41;;;19.82;100.00
17525;BME280;40431;52.198;9.902;2023-07-24T00:24:05;99656.31;;;19.84;100.00
17525;BME280;40431;52.198;9.902;2023-07-24T00:26:33;99653.75;;;19.83;100.00
17525;BME280;40431;52.198;9.902;2023-07-24T00:28:59;99648.25;;;19.83;100.00
17525;BME280;40431;52.198;9.902;2023-07-24T00:31:26;99656.69;;;19.81;100.00
17525;BME280;40431;52.198;9.902;2023-07-24T00:33:53;99651.19;;;19.81;100.00
17525;BME280;40431;52.198;9.902;2023-07-24T00:36:19;99649.78;;;19.77;100.00
17525;BME280;40431;52.198;9.902;2023-07-24T00:38:45;99647.41;;;19.82;100.00
17525;BME280;40431;52.198;9.902;2023-07-24T00:41:12;99644.63;;;19.91;100.00
17525;BME280;40431;52.198;9.902;2023-07-24T00:43:39;99649.25;;;19.90;100.00
17525;BME280;40431;52.198;9.902;2023-07-24T00:46:06;99648.78;;;19.87;100.00
17525;BME280;40431;52.198;9.902;2023-07-24T00:48:33;99645.69;;;19.81;100.00
17525;BME280;40431;52.198;9.902;2023-07-24T00:50:59;99657.22;;;19.85;100.00
17525;BME280;40431;52.198;9.902;2023-07-24T00:53:26;99657.69;;;19.89;100.00
17525;BME280;40431;52.198;9.902;2023-07-24T00:55:53;99660.81;;;19.85;100.00
17525;BME280;40431;52.198;9.902;2023-07-24T00:58:19;99662.19;;;19.81;100.00
17525;BME280;40431;52.198;9.902;2023-07-24T01:00:49;99659.75;;;19.78;100.00
17525;BME280;40431;52.198;9.902;2023-07-24T01:03:16;99662.84;;;19.75;100.00
17525;BME280;40431;52.198;9.902;2023-07-24T01:05:42;99665.25;;;19.78;100.00
17525;BME280;40431;52.198;9.902;2023-07-24T01:08:09;99660.09;;;19.83;100.00
17525;BME280;40431;52.198;9.902;2023-07-24T01:10:35;99655.50;;;19.84;100.00
17525;BME280;40431;52.198;9.902;2023-07-24T01:13:04;99655.50;;;19.84;100.00
17525;BME280;40431;52.198;9.902;2023-07-24T01:15:32;99653.22;;;19.79;100.00
17525;BME280;40431;52.198;9.902;2023-07-24T01:18:06;99649.09;;;19.75;100.00
17525;BME280;40431;52.198;9.902;2023-07-24T01:20:36;99643.25;;;19.78;100.00
17525;BME280;40431;52.198;9.902;2023-07-24T01:23:23;99637.06;;;19.76;100.00
17525;BME280;40431;52.198;9.902;2023-07-24T01:25:58;99645.50;;;19.75;100.00
17525;BME280;40431;52.198;9.902;2023-07-24T01:28:24;99641.22;;;19.72;100.00
17525;BME280;40431;52.198;9.902;2023-07-24T01:30:51;99637.06;;;19.76;100.00
17525;BME280;40431;52.198;9.902;2023-07-24T01:33:18;99648.44;;;19.73;100.00
17525;BME280;40431;52.198;9.902;2023-07-24T01:35:47;99648.75;;;19.70;100.00
17525;BME280;40431;52.198;9.902;2023-07-24T01:38:16;99638.47;;;19.72;100.00
17525;BME280;40431;52.198;9.902;2023-07-24T01:40:43;99630.38;;;19.71;100.00
17525;BME280;40431;52.198;9.902;2023-07-24T01:43:11;99628.81;;;19.76;100.00
17525;BME280;40431;52.198;9.902;2023-07-24T01:45:37;99631.94;;;19.73;100.00
17525;BME280;40431;52.198;9.902;2023-07-24T01:48:04;99635.34;;;19.75;100.00
17525;BME280;40431;52.198;9.902;2023-07-24T01:50:31;99631.06;;;19.73;100.00
17525;BME280;40431;52.198;9.902;2023-07-24T01:52:58;99631.94;;;19.73;100.00
17525;BME280;40431;52.198;9.902;2023-07-24T01:55:24;99626.59;;;19.72;100.00
17525;BME280;40431;52.198;9.902;2023-07-24T01:57:51;99643.25;;;19.78;100.00
17525;BME280;40431;52.198;9.902;2023-07-24T02:00:19;99640.84;;;19.75;100.00
17525;BME280;40431;52.198;9.902;2023-07-24T02:02:45;99624.34;;;19.75;100.00
17525;BME280;40431;52.198;9.902;2023-07-24T02:05:12;99622.63;;;19.74;100.00
17525;BME280;40431;52.198;9.902;2023-07-24T02:07:38;99629.34;;;19.72;100.00
17525;BME280;40431;52.198;9.902;2023-07-24T02:10:05;99632.41;;;19.77;100.00
17525;BME280;40431;52.198;9.902;2023-07-24T02:12:32;99628.13;;;19.74;100.00
17525;BME280;40431;52.198;9.902;2023-07-24T02:14:58;99624.72;;;19.72;100.00
17525;BME280;40431;52.198;9.902;2023-07-24T02:17:26;99628.50;;;19.71;100.00
17525;BME280;40431;52.198;9.902;2023-07-24T02:19:53;99621.78;;;19.74;100.00
17525;BME280;40431;52.198;9.902;2023-07-24T02:22:19;99624.72;;;19.72;100.00
17525;BME280;40431;52.198;9.902;2023-07-24T02:24:45;99626.91;;;19.77;100.00
17525;BME280;40431;52.198;9.902;2023-07-24T02:27:12;99618.00;;;19.75;100.00
17525;BME280;40431;52.198;9.902;2023-07-24T02:29:39;99619.22;;;19.72;100.00
17525;BME280;40431;52.198;9.902;2023-07-24T02:32:06;99620.06;;;19.73;100.00
17525;BME280;40431;52.198;9.902;2023-07-24T02:34:34;99615.44;;;19.73;100.00
17525;BME280;40431;52.198;9.902;2023-07-24T02:37:00;99615.44;;;19.73;100.00
17525;BME280;40431;52.198;9.902;2023-07-24T02:39:26;99621.25;;;19.70;100.00
17525;BME280;40431;52.198;9.902;2023-07-24T02:41:53;99619.22;;;19.72;100.00
17525;BME280;40431;52.198;9.902;2023-07-24T02:44:19;99625.91;;;19.69;100.00
17525;BME280;40431;52.198;9.902;2023-07-24T02:46:46;99610.97;;;19.72;100.00
17525;BME280;40431;52.198;9.902;2023-07-24T02:49:12;99615.75;;;19.70;100.00
17525;BME280;40431;52.198;9.902;2023-07-24T02:51:40;99619.25;;;19.64;100.00
17525;BME280;40431;52.198;9.902;2023-07-24T02:54:06;99620.09;;;19.56;100.00
17525;BME280;40431;52.198;9.902;2023-07-24T02:56:32;99613.41;;;19.59;100.00
17525;BME280;40431;52.198;9.902;2023-07-24T02:58:59;99606.53;;;19.55;100.00
17525;BME280;40431;52.198;9.902;2023-07-24T03:01:25;99612.56;;;19.50;100.00
17525;BME280;40431;52.198;9.902;2023-07-24T03:03:52;99612.22;;;19.45;100.00
17525;BME280;40431;52.198;9.902;2023-07-24T03:06:18;99609.63;;;19.43;100.00
17525;BME280;40431;52.198;9.902;2023-07-24T03:08:46;99599.84;;;19.41;100.00
17525;BME280;40431;52.198;9.902;2023-07-24T03:11:12;99603.13;;;19.36;100.00
17525;BME280;40431;52.198;9.902;2023-07-24T03:13:39;99601.25;;;19.28;100.00
17525;BME280;40431;52.198;9.902;2023-07-24T03:16:07;99599.72;;;19.26;100.00
17525;BME280;40431;52.198;9.902;2023-07-24T03:18:33;99591.28;;;19.27;100.00
17525;BME280;40431;52.198;9.902;2023-07-24T03:21:00;99599.38;;;19.21;100.00
17525;BME280;40431;52.198;9.902;2023-07-24T03:23:26;99600.75;;;19.16;100.00
17525;BME280;40431;52.198;9.902;2023-07-24T03:25:54;99603.13;;;19.19;100.00
17525;BME280;40431;52.198;9.902;2023-07-24T03:28:20;99593.72;;;19.14;100.00
17525;BME280;40431;52.198;9.902;2023-07-24T03:30:47;99605.53;;;19.14;100.00
17525;BME280;40431;52.198;9.902;2023-07-24T03:33:13;99601.44;;;19.10;100.00
17525;BME280;40431;52.198;9.902;2023-07-24T03:35:40;99598.69;;;19.10;100.00
17525;BME280;40431;52.198;9.902;2023-07-24T03:38:06;99585.13;;;19.09;100.00
17525;BME280;40431;52.198;9.902;2023-07-24T03:40:32;99593.19;;;19.10;100.00
17525;BME280;40431;52.198;9.902;2023-07-24T03:43:00;99594.06;;;19.11;100.00
17525;BME280;40431;52.198;9.902;2023-07-24T03:45:27;99586.84;;;19.10;100.00
17525;BME280;40431;52.198;9.902;2023-07-24T03:47:53;99585.13;;;19.09;100.00
17525;BME280;40431;52.198;9.902;2023-07-24T03:50:19;99584.28;;;19.08;100.00
17525;BME280;40431;52.198;9.902;2023-07-24T03:52:46;99579.44;;;19.10;100.00
17525;BME280;40431;52.198;9.902;2023-07-24T03:55:12;99575.31;;;19.14;100.00
17525;BME280;40431;52.198;9.902;2023-07-24T03:57:39;99579.47;;;19.18;100.00
17525;BME280;40431;52.198;9.902;2023-07-24T04:00:08;99570.53;;;19.16;100.00
17525;BME280;40431;52.198;9.902;2023-07-24T04:02:34;99571.53;;;19.15;100.00
17525;BME280;40431;52.198;9.902;2023-07-24T04:05:01;99570.88;;;19.13;100.00
17525;BME280;40431;52.198;9.902;2023-07-24T04:07:27;99587.00;;;19.16;100.00
17525;BME280;40431;52.198;9.902;2023-07-24T04:09:54;99571.03;;;19.20;100.00
17525;BME280;40431;52.198;9.902;2023-07-24T04:12:20;99566.22;;;19.22;100.00
17525;BME280;40431;52.198;9.902;2023-07-24T04:14:46;99567.94;;;19.23;100.00
17525;BME280;40431;52.198;9.902;2023-07-24T04:17:15;99565.19;;;19.23;100.00
17525;BME280;40431;52.198;9.902;2023-07-24T04:19:41;99558.69;;;19.16;100.00
17525;BME280;40431;52.198;9.902;2023-07-24T04:22:08;99556.44;;;19.11;100.00
17525;BME280;40431;52.198;9.902;2023-07-24T04:24:34;99557.66;;;19.00;100.00
17525;BME280;40431;52.198;9.902;2023-07-24T04:27:02;99563.00;;;18.94;100.00
17525;BME280;40431;52.198;9.902;2023-07-24T04:29:30;99556.41;;;18.86;100.00
17525;BME280;40431;52.198;9.902;2023-07-24T04:31:56;99553.50;;;18.80;100.00
17525;BME280;40431;52.198;9.902;2023-07-24T04:34:24;99552.13;;;18.76;100.00
17525;BME280;40431;52.198;9.902;2023-07-24T04:36:51;99548.19;;;18.70;100.00
17525;BME280;40431;52.198;9.902;2023-07-24T04:39:18;99548.19;;;18.62;100.00
17525;BME280;40431;52.198;9.902;2023-07-24T04:41:44;99539.44;;;18.58;100.00
17525;BME280;40431;52.198;9.902;2023-07-24T04:44:11;99525.88;;;18.57;100.00
17525;BME280;40431;52.198;9.902;2023-07-24T04:46:37;99530.16;;;18.59;100.00
17525;BME280;40431;52.198;9.902;2023-07-24T04:49:03;99537.56;;;18.67;100.00
17525;BME280;40431;52.198;9.902;2023-07-24T04:51:31;99540.13;;;18.77;100.00
17525;BME280;40431;52.198;9.902;2023-07-24T04:53:58;99522.78;;;18.84;100.00
17525;BME280;40431;52.198;9.902;2023-07-24T04:56:24;99518.00;;;18.95;100.00
17525;BME280;40431;52.198;9.902;2023-07-24T04:58:50;99518.34;;;19.00;100.00
17525;BME280;40431;52.198;9.902;2023-07-24T05:01:17;99514.56;;;19.09;100.00
17525;BME280;40431;52.198;9.902;2023-07-24T05:03:43;99505.59;;;19.15;100.00
17525;BME280;40431;52.198;9.902;2023-07-24T05:06:10;99492.16;;;19.29;100.00
17525;BME280;40431;52.198;9.902;2023-07-24T05:08:37;99491.09;;;19.38;100.00
17525;BME280;40431;52.198;9.902;2023-07-24T05:11:04;99495.22;;;19.50;100.00
17525;BME280;40431;52.198;9.902;2023-07-24T05:13:30;99489.66;;;19.59;100.00
17525;BME280;40431;52.198;9.902;2023-07-24T05:15:56;99482.03;;;19.69;100.00
17525;BME280;40431;52.198;9.902;2023-07-24T05:18:23;99472.56;;;19.80;100.00
17525;BME280;40431;52.198;9.902;2023-07-24T05:20:49;99478.22;;;19.87;100.00
17525;BME280;40431;52.198;9.902;2023-07-24T05:23:18;99478.75;;;19.82;100.00
17525;BME280;40431;52.198;9.902;2023-07-24T05:25:46;99485.13;;;19.82;100.00
17525;BME280;40431;52.198;9.902;2023-07-24T05:28:13;99482.38;;;19.82;100.00
17525;BME280;40431;52.198;9.902;2023-07-24T05:30:39;99489.22;;;19.87;100.00
17525;BME280;40431;52.198;9.902;2023-07-24T05:33:06;99499.16;;;19.96;100.00
17525;BME280;40431;52.198;9.902;2023-07-24T05:35:32;99500.50;;;20.00;100.00
17525;BME280;40431;52.198;9.902;2023-07-24T05:37:58;99506.84;;;20.00;100.00
17525;BME280;40431;52.198;9.902;2023-07-24T05:40:25;99511.13;;;20.03;100.00
17525;BME280;40431;52.198;9.902;2023-07-24T05:42:53;99509.41;;;20.02;100.00
17525;BME280;40431;52.198;9.902;2023-07-24T05:45:19;99498.59;;;20.00;100.00
17525;BME280;40431;52.198;9.902;2023-07-24T05:47:45;99488.47;;;19.93;100.00
17525;BME280;40431;52.198;9.902;2023-07-24T05:50:12;99484.88;;;19.92;100.00
17525;BME280;40431;52.198;9.902;2023-07-24T05:52:39;99485.72;;;19.93;100.00
17525;BME280;40431;52.198;9.902;2023-07-24T05:55:07;99495.34;;;19.97;100.00
17525;BME280;40431;52.198;9.902;2023-07-24T05:57:33;99497.06;;;19.98;100.00
17525;BME280;40431;52.198;9.902;2023-07-24T06:00:01;99498.09;;;19.97;100.00
17525;BME280;40431;52.198;9.902;2023-07-24T06:02:28;99487.97;;;19.97;100.00
17525;BME280;40431;52.198;9.902;2023-07-24T06:04:54;99480.38;;;19.99;100.00
17525;BME280;40431;52.198;9.902;2023-07-24T06:07:21;99476.38;;;20.02;100.00
17525;BME280;40431;52.198;9.902;2023-07-24T06:09:48;99476.91;;;20.06;100.00
17525;BME280;40431;52.198;9.902;2023-07-24T06:12:14;99471.91;;;20.09;100.00
17525;BME280;40431;52.198;9.902;2023-07-24T06:14:41;99459.28;;;20.15;100.00
17525;BME280;40431;52.198;9.902;2023-07-24T06:17:08;99479.00;;;20.27;100.00
17525;BME280;40431;52.198;9.902;2023-07-24T06:19:35;99463.56;;;20.41;100.00
17525;BME280;40431;52.198;9.902;2023-07-24T06:22:01;99459.16;;;20.55;100.00
17525;BME280;40431;52.198;9.902;2023-07-24T06:24:28;99451.19;;;20.60;100.00
17525;BME280;40431;52.198;9.902;2023-07-24T06:26:54;99446.28;;;20.70;100.00
17525;BME280;40431;52.198;9.902;2023-07-24T06:29:20;99440.63;;;20.87;100.00
17525;BME280;40431;52.198;9.902;2023-07-24T06:31:47;99429.81;;;21.00;100.00
17525;BME280;40431;52.198;9.902;2023-07-24T06:34:16;99429.16;;;21.13;100.00
17525;BME280;40431;52.198;9.902;2023-07-24T06:36:42;99438.38;;;21.20;100.00
17525;BME280;40431;52.198;9.902;2023-07-24T06:39:09;99437.34;;;21.21;100.00
17525;BME280;40431;52.198;9.902;2023-07-24T06:41:35;99429.25;;;21.19;100.00
17525;BME280;40431;52.198;9.902;2023-07-24T06:44:02;99429.25;;;21.19;100.00
17525;BME280;40431;52.198;9.902;2023-07-24T06:46:28;99415.47;;;21.19;100.00
17525;BME280;40431;52.198;9.902;2023-07-24T06:48:55;99414.78;;;21.17;100.00
17525;BME280;40431;52.198;9.902;2023-07-24T06:51:22;99404.06;;;21.23;100.00
17525;BME280;40431;52.198;9.902;2023-07-24T06:53:49;99416.13;;;21.22;100.00
17525;BME280;40431;52.198;9.902;2023-07-24T06:56:15;99414.78;;;21.17;100.00
17525;BME280;40431;52.198;9.902;2023-07-24T06:58:42;99417.34;;;21.19;100.00
17525;BME280;40431;52.198;9.902;2023-07-24T07:01:08;99415.09;;;21.23;100.00
17525;BME280;40431;52.198;9.902;2023-07-24T07:03:34;99421.16;;;21.33;100.00
17525;BME280;40431;52.198;9.902;2023-07-24T07:06:01;99428.38;;;21.49;100.00
17525;BME280;40431;52.198;9.902;2023-07-24T07:08:29;99420.28;;;21.62;98.84
17525;BME280;40431;52.198;9.902;2023-07-24T07:10:56;99419.63;;;21.75;98.53
17525;BME280;40431;52.198;9.902;2023-07-24T07:13:22;99417.38;;;21.85;96.71
17525;BME280;40431;52.198;9.902;2023-07-24T07:15:49;99410.09;;;21.78;96.31
17525;BME280;40431;52.198;9.902;2023-07-24T07:18:15;99408.38;;;21.77;96.29
17525;BME280;40431;52.198;9.902;2023-07-24T07:20:45;99411.84;;;21.85;95.64
17525;BME280;40431;52.198;9.902;2023-07-24T07:23:11;99403.19;;;21.89;94.47
17525;BME280;40431;52.198;9.902;2023-07-24T07:25:39;99409.16;;;21.92;93.80
17525;BME280;40431;52.198;9.902;2023-07-24T07:28:05;99408.53;;;21.90;93.13
17525;BME280;40431;52.198;9.902;2023-07-24T07:30:31;99410.69;;;21.95;93.38
17525;BME280;40431;52.198;9.902;2023-07-24T07:32:58;99396.78;;;22.03;93.24
17525;BME280;40431;52.198;9.902;2023-07-24T07:35:24;99406.75;;;22.26;93.50
17525;BME280;40431;52.198;9.902;2023-07-24T07:37:51;99391.09;;;22.55;90.31
17525;BME280;40431;52.198;9.902;2023-07-24T07:40:18;99394.50;;;22.85;90.08
17525;BME280;40431;52.198;9.902;2023-07-24T07:42:46;99388.22;;;22.98;87.11
17525;BME280;40431;52.198;9.902;2023-07-24T07:45:12;99382.50;;;23.06;88.56
17525;BME280;40431;52.198;9.902;2023-07-24T07:47:38;99371.69;;;23.11;87.69
17525;BME280;40431;52.198;9.902;2023-07-24T07:50:05;99388.28;;;23.11;85.91
17525;BME280;40431;52.198;9.902;2023-07-24T07:52:32;99380.84;;;23.12;84.88
17525;BME280;40431;52.198;9.902;2023-07-24T07:54:58;99387.38;;;23.04;84.02
17525;BME280;40431;52.198;9.902;2023-07-24T07:57:25;99382.75;;;23.11;84.82
17525;BME280;40431;52.198;9.902;2023-07-24T07:59:53;99371.38;;;23.28;83.86
17525;BME280;40431;52.198;9.902;2023-07-24T08:02:19;99363.97;;;23.35;83.04
17525;BME280;40431;52.198;9.902;2023-07-24T08:04:45;99379.94;;;23.40;82.76
17525;BME280;40431;52.198;9.902;2023-07-24T08:07:12;99375.59;;;23.24;83.71
17525;BME280;40431;52.198;9.902;2023-07-24T08:09:38;99381.00;;;23.04;86.37
17525;BME280;40431;52.198;9.902;2023-07-24T08:12:06;99374.91;;;22.80;87.42
17525;BME280;40431;52.198;9.902;2023-07-24T08:14:32;99372.25;;;22.65;88.29
17525;BME280;40431;52.198;9.902;2023-07-24T08:17:00;99378.09;;;22.48;89.09
17525;BME280;40431;52.198;9.902;2023-07-24T08:19:27;99381.19;;;22.39;89.85
17525;BME280;40431;52.198;9.902;2023-07-24T08:21:54;99395.03;;;22.24;90.66
17525;BME280;40431;52.198;9.902;2023-07-24T08:24:20;99399.84;;;22.15;91.13
17525;BME280;40431;52.198;9.902;2023-07-24T08:26:47;99389.25;;;22.18;92.27
17525;BME280;40431;52.198;9.902;2023-07-24T08:29:13;99406.91;;;22.39;91.73
17525;BME280;40431;52.198;9.902;2023-07-24T08:31:40;99389.38;;;22.32;88.79
17525;BME280;40431;52.198;9.902;2023-07-24T08:34:07;99398.59;;;22.17;90.46
17525;BME280;40431;52.198;9.902;2023-07-24T08:36:34;99401.81;;;21.99;89.72
17525;BME280;40431;52.198;9.902;2023-07-24T08:39:02;99401.63;;;21.79;91.02
17525;BME280;40431;52.198;9.902;2023-07-24T08:41:29;99397.22;;;21.85;93.13
17525;BME280;40431;52.198;9.902;2023-07-24T08:43:57;99400.66;;;21.72;92.01
17525;BME280;40431;52.198;9.902;2023-07-24T08:46:24;99410.38;;;21.68;93.22
17525;BME280;40431;52.198;9.902;2023-07-24T08:48:52;99400.41;;;21.67;93.53
17525;BME280;40431;52.198;9.902;2023-07-24T08:51:22;99417.28;;;21.79;93.64
17525;BME280;40431;52.198;9.902;2023-07-24T08:53:50;99417.09;;;21.80;94.00
17525;BME280;40431;52.198;9.902;2023-07-24T08:56:16;99407.13;;;21.79;91.52
17525;BME280;40431;52.198;9.902;2023-07-24T08:58:43;99409.97;;;21.71;93.82
17525;BME280;40431;52.198;9.902;2023-07-24T09:01:09;99410.47;;;21.75;93.41
17525;BME280;40431;52.198;9.902;2023-07-24T09:03:36;99410.66;;;21.73;94.83
17525;BME280;40431;52.198;9.902;2023-07-24T09:06:03;99408.31;;;21.70;93.79
17525;BME280;40431;52.198;9.902;2023-07-24T09:08:34;99413.41;;;21.73;94.05
17525;BME280;40431;52.198;9.902;2023-07-24T09:11:02;99408.38;;;21.77;94.19
17525;BME280;40431;52.198;9.902;2023-07-24T09:13:31;99409.22;;;21.77;93.46
17525;BME280;40431;52.198;9.902;2023-07-24T09:15:58;99411.34;;;21.75;94.33
17525;BME280;40431;52.198;9.902;2023-07-24T09:18:25;99414.75;;;21.77;93.85
17525;BME280;40431;52.198;9.902;2023-07-24T09:20:51;99423.78;;;21.71;93.81
17525;BME280;40431;52.198;9.902;2023-07-24T09:23:26;99412.56;;;21.73;93.72
17525;BME280;40431;52.198;9.902;2023-07-24T09:25:54;99403.06;;;21.75;93.93
17525;BME280;40431;52.198;9.902;2023-07-24T09:28:21;99412.66;;;21.79;92.66
17525;BME280;40431;52.198;9.902;2023-07-24T09:30:53;99417.38;;;21.85;92.91
17525;BME280;40431;52.198;9.902;2023-07-24T09:33:20;99417.63;;;21.91;93.07
17525;BME280;40431;52.198;9.902;2023-07-24T09:35:57;99413.00;;;21.91;93.01
17525;BME280;40431;52.198;9.902;2023-07-24T09:38:23;99413.72;;;22.00;92.25
17525;BME280;40431;52.198;9.902;2023-07-24T09:40:53;99406.88;;;22.17;93.06
17525;BME280;40431;52.198;9.902;2023-07-24T09:43:21;99409.53;;;22.47;89.71
17525;BME280;40431;52.198;9.902;2023-07-24T09:45:50;99415.75;;;22.84;90.52
17525;BME280;40431;52.198;9.902;2023-07-24T09:48:17;99417.25;;;23.15;88.85
17525;BME280;40431;52.198;9.902;2023-07-24T09:50:47;99407.38;;;23.41;85.70
17525;BME280;40431;52.198;9.902;2023-07-24T09:53:18;99407.22;;;23.49;83.66
17525;BME280;40431;52.198;9.902;2023-07-24T09:55:50;99400.41;;;23.45;81.87
17525;BME280;40431;52.198;9.902;2023-07-24T09:58:20;99407.03;;;23.51;82.43
17525;BME280;40431;52.198;9.902;2023-07-24T10:00:48;99396.16;;;23.49;80.17
17525;BME280;40431;52.198;9.902;2023-07-24T10:03:15;99386.31;;;23.33;82.06
17525;BME280;40431;52.198;9.902;2023-07-24T10:05:43;99383.97;;;23.37;81.72
17525;BME280;40431;52.198;9.902;2023-07-24T10:08:10;99385.88;;;23.37;81.40
17525;BME280;40431;52.198;9.902;2023-07-24T10:10:38;99394.63;;;23.40;80.95
17525;BME280;40431;52.198;9.902;2023-07-24T10:13:05;99396.91;;;23.30;80.71
17525;BME280;40431;52.198;9.902;2023-07-24T10:15:34;99394.41;;;23.35;81.23
17525;BME280;40431;52.198;9.902;2023-07-24T10:18:02;99396.75;;;23.38;80.82
17525;BME280;40431;52.198;9.902;2023-07-24T10:20:33;99374.38;;;23.33;81.04
17525;BME280;40431;52.198;9.902;2023-07-24T10:23:00;99375.03;;;23.35;81.28
17525;BME280;40431;52.198;9.902;2023-07-24T10:25:29;99368.50;;;23.49;82.23
17525;BME280;40431;52.198;9.902;2023-07-24T10:28:01;99361.56;;;23.80;81.01
17525;BME280;40431;52.198;9.902;2023-07-24T10:30:30;99349.72;;;24.00;79.56
17525;BME280;40431;52.198;9.902;2023-07-24T10:33:05;99348.00;;;24.19;76.75
17525;BME280;40431;52.198;9.902;2023-07-24T10:35:37;99338.66;;;24.27;75.58
17525;BME280;40431;52.198;9.902;2023-07-24T10:38:04;99329.06;;;24.23;73.67
17525;BME280;40431;52.198;9.902;2023-07-24T10:40:32;99333.09;;;24.33;73.47
17525;BME280;40431;52.198;9.902;2023-07-24T10:43:00;99325.44;;;24.15;72.94
17525;BME280;40431;52.198;9.902;2023-07-24T10:45:37;99317.13;;;24.02;73.37
17525;BME280;40431;52.198;9.902;2023-07-24T10:48:05;99317.53;;;23.92;74.64
17525;BME280;40431;52.198;9.902;2023-07-24T10:50:36;99318.81;;;24.10;76.30
17525;BME280;40431;52.198;9.902;2023-07-24T10:53:02;99318.00;;;24.23;74.16
17525;BME280;40431;52.198;9.902;2023-07-24T10:55:29;99310.06;;;24.33;74.55
17525;BME280;40431;52.198;9.902;2023-07-24T10:57:55;99309.22;;;24.39;72.86
17525;BME280;40431;52.198;9.902;2023-07-24T11:00:22;99316.47;;;24.40;72.59
17525;BME280;40431;52.198;9.902;2023-07-24T11:02:48;99312.41;;;24.49;73.74
17525;BME280;40431;52.198;9.902;2023-07-24T11:05:17;99314.97;;;24.64;74.65
17525;BME280;40431;52.198;9.902;2023-07-24T11:07:44;99317.06;;;24.89;73.47
17525;BME280;40431;52.198;9.902;2023-07-24T11:10:15;99316.13;;;25.09;70.77
17525;BME280;40431;52.198;9.902;2023-07-24T11:12:41;99310.81;;;25.07;67.56
17525;BME280;40431;52.198;9.902;2023-07-24T11:15:09;99320.84;;;25.08;68.08
17525;BME280;40431;52.198;9.902;2023-07-24T11:17:36;99322.75;;;25.08;67.38
17525;BME280;40431;52.198;9.902;2023-07-24T11:20:10;99297.78;;;25.14;68.93
17525;BME280;40431;52.198;9.902;2023-07-24T11:22:41;99315.28;;;25.08;66.28
17525;BME280;40431;52.198;9.902;2023-07-24T11:25:09;99315.81;;;24.78;65.32
17525;BME280;40431;52.198;9.902;2023-07-24T11:27:39;99302.16;;;24.70;67.74
17525;BME280;40431;52.198;9.902;2023-07-24T11:30:07;99304.25;;;24.95;74.31
17525;BME280;40431;52.198;9.902;2023-07-24T11:32:34;99296.06;;;25.13;71.22
17525;BME280;40431;52.198;9.902;2023-07-24T11:35:01;99303.59;;;25.52;69.31
17525;BME280;40431;52.198;9.902;2023-07-24T11:37:28;99311.94;;;25.83;64.74
17525;BME280;40431;52.198;9.902;2023-07-24T11:39:59;99289.72;;;25.83;63.39
17525;BME280;40431;52.198;9.902;2023-07-24T11:42:30;99305.84;;;25.68;63.58
17525;BME280;40431;52.198;9.902;2023-07-24T11:45:00;99297.41;;;25.81;63.50
17525;BME280;40431;52.198;9.902;2023-07-24T11:47:27;99292.41;;;25.65;62.73
17525;BME280;40431;52.198;9.902;2023-07-24T11:49:58;99293.38;;;25.45;61.89
17525;BME280;40431;52.198;9.902;2023-07-24T11:52:25;99297.72;;;25.28;61.79
17525;BME280;40431;52.198;9.902;2023-07-24T11:54:59;99280.22;;;25.21;62.08
17525;BME280;40431;52.198;9.902;2023-07-24T11:57:28;99283.66;;;25.23;62.97
17525;BME280;40431;52.198;9.902;2023-07-24T11:59:55;99284.88;;;25.33;63.45
17525;BME280;40431;52.198;9.902;2023-07-24T12:02:25;99279.78;;;25.37;62.38
17525;BME280;40431;52.198;9.902;2023-07-24T12:04:56;99264.78;;;25.45;63.31
17525;BME280;40431;52.198;9.902;2023-07-24T12:07:29;99269.00;;;25.47;62.31
17525;BME280;40431;52.198;9.902;2023-07-24T12:09:55;99264.19;;;25.36;64.48
17525;BME280;40431;52.198;9.902;2023-07-24T12:12:23;99261.97;;;25.52;62.43
17525;BME280;40431;52.198;9.902;2023-07-24T12:14:49;99255.59;;;25.44;61.97
17525;BME280;40431;52.198;9.902;2023-07-24T12:17:18;99250.50;;;25.41;62.61
17525;BME280;40431;52.198;9.902;2023-07-24T12:19:45;99248.19;;;25.38;61.88
17525;BME280;40431;52.198;9.902;2023-07-24T12:22:12;99249.03;;;25.39;62.00
17525;BME280;40431;52.198;9.902;2023-07-24T12:24:38;99253.75;;;25.38;60.98
17525;BME280;40431;52.198;9.902;2023-07-24T12:27:05;99257.63;;;25.24;61.27
17525;BME280;40431;52.198;9.902;2023-07-24T12:29:32;99264.31;;;25.09;67.70
17525;BME280;40431;52.198;9.902;2023-07-24T12:31:59;99268.66;;;24.92;70.23
17525;BME280;40431;52.198;9.902;2023-07-24T12:34:25;99259.53;;;24.71;72.34
17525;BME280;40431;52.198;9.902;2023-07-24T12:36:52;99256.16;;;24.62;73.88
17525;BME280;40431;52.198;9.902;2023-07-24T12:39:21;99245.47;;;24.52;73.85
17525;BME280;40431;52.198;9.902;2023-07-24T12:41:48;99254.69;;;24.33;74.41
17525;BME280;40431;52.198;9.902;2023-07-24T12:44:14;99257.91;;;24.16;75.19
17525;BME280;40431;52.198;9.902;2023-07-24T12:46:42;99261.75;;;23.95;76.07
17525;BME280;40431;52.198;9.902;2023-07-24T12:49:08;99271.28;;;23.66;78.36
17525;BME280;40431;52.198;9.902;2023-07-24T12:51:35;99265.66;;;23.26;80.80
17525;BME280;40431;52.198;9.902;2023-07-24T12:54:01;99257.78;;;23.29;81.99
17525;BME280;40431;52.198;9.902;2023-07-24T12:56:27;99260.78;;;23.34;83.10